Time;durP1;ratioP1;P1;durP2;ratioP2;P2;SDS_P1;SDS_P2;PMS_P1;PMS_P2;Temp;Humidity;BMP_temperature;BMP_pressure;BME280_temperature;BME280_humidity;BME280_pressure;Samples;Min_cycle;Max_cycle;Signal;HPM_P1;HPM_P2
2023/12/01 00:00:42;;;;;;;12.67;11.57;;;;;;;3.03;100.00;98673.78;5062850;28;20202;-76
2023/12/01 00:03:07;;;;;;;12.70;11.50;;;;;;;3.11;100.00;98674.63;5060858;28;20256;-76
2023/12/01 00:05:32;;;;;;;13.07;11.67;;;;;;;3.03;100.00;98686.56;5062621;28;20197;-76
2023/12/01 00:07:58;;;;;;;12.60;11.40;;;;;;;2.97;100.00;98689.16;5062971;28;20581;-76
2023/12/01 00:10:23;;;;;;;13.17;11.77;;;;;;;2.93;100.00;98675.56;5056889;28;20234;-76
2023/12/01 00:12:48;;;;;;;13.30;11.93;;;;;;;2.95;100.00;98685.75;5060747;28;20332;-76
2023/12/01 00:15:14;;;;;;;12.93;11.67;;;;;;;2.92;100.00;98678.97;5061590;28;20214;-76
2023/12/01 00:17:39;;;;;;;13.93;12.53;;;;;;;2.95;100.00;98675.53;5061549;28;20198;-77
2023/12/01 00:20:05;;;;;;;12.97;11.73;;;;;;;2.90;100.00;98676.41;5065726;28;20212;-76
2023/12/01 00:22:31;;;;;;;13.13;11.83;;;;;;;2.95;100.00;98678.09;5065576;28;20226;-76
2023/12/01 00:24:56;;;;;;;12.70;11.50;;;;;;;2.93;100.00;98675.56;5062216;28;20190;-76
2023/12/01 00:27:21;;;;;;;12.90;11.60;;;;;;;2.99;100.00;98672.97;5064980;28;20259;-76
2023/12/01 00:29:47;;;;;;;13.30;11.97;;;;;;;3.09;100.00;98668.66;5069542;28;20219;-76
2023/12/01 00:32:12;;;;;;;13.17;11.80;;;;;;;2.96;100.00;98670.41;5064985;28;21012;-75
2023/12/01 00:34:37;;;;;;;13.17;11.53;;;;;;;2.91;100.00;98661.94;5077657;28;20186;-77
2023/12/01 00:37:31;;;;;;;12.43;11.27;;;;;;;2.91;100.00;98684.94;5064074;28;20323;-76
2023/12/01 00:39:56;;;;;;;15.33;13.00;;;;;;;2.76;100.00;98690.09;5060791;28;20251;-76
2023/12/01 00:42:22;;;;;;;14.33;12.90;;;;;;;2.80;100.00;98695.19;5064232;28;20186;-76
2023/12/01 00:44:47;;;;;;;14.50;13.10;;;;;;;2.79;100.00;98698.59;5062213;28;20269;-77
2023/12/01 00:47:13;;;;;;;13.23;11.93;;;;;;;2.83;100.00;98686.66;5061378;28;20212;-76
2023/12/01 00:49:38;;;;;;;13.53;12.23;;;;;;;2.74;100.00;98693.50;5059477;28;20713;-76
2023/12/01 00:52:04;;;;;;;14.33;12.93;;;;;;;2.80;100.00;98679.03;5057529;28;20296;-77
2023/12/01 00:54:29;;;;;;;15.10;13.60;;;;;;;2.67;100.00;98683.31;5059639;28;20622;-77
2023/12/01 00:56:55;;;;;;;15.47;13.97;;;;;;;2.63;100.00;98684.16;5060428;28;20205;-76
2023/12/01 00:59:20;;;;;;;15.30;13.90;;;;;;;2.66;100.00;98679.88;5061582;28;20271;-76
2023/12/01 01:01:45;;;;;;;16.07;14.47;;;;;;;2.70;100.00;98683.31;5062370;28;20249;-76
2023/12/01 01:04:11;;;;;;;16.60;14.87;;;;;;;2.65;100.00;98685.84;5063580;28;20299;-76
2023/12/01 01:06:36;;;;;;;17.03;15.30;;;;;;;2.65;100.00;98690.13;5062745;28;20213;-75
2023/12/01 01:09:01;;;;;;;16.23;14.40;;;;;;;2.59;100.00;98685.88;5058349;28;21055;-77
2023/12/01 01:11:27;;;;;;;16.87;15.07;;;;;;;2.63;100.00;98696.94;5060667;28;20756;-75
2023/12/01 01:13:52;;;;;;;17.13;15.43;;;;;;;2.58;100.00;98704.59;5060332;28;20200;-76
2023/12/01 01:16:18;;;;;;;16.30;14.70;;;;;;;2.63;100.00;98696.94;5055389;28;20201;-74
2023/12/01 01:18:43;;;;;;;17.00;15.30;;;;;;;2.63;100.00;98697.81;5061478;28;20186;-76
2023/12/01 01:21:08;;;;;;;18.77;16.97;;;;;;;2.59;100.00;98691.81;5060542;28;20702;-76
2023/12/01 01:23:35;;;;;;;18.47;16.57;;;;;;;2.53;100.00;98709.72;5058224;28;20243;-76
2023/12/01 01:26:02;;;;;;;17.10;15.40;;;;;;;2.53;100.00;98709.72;5062776;28;20298;-76
2023/12/01 01:28:28;;;;;;;18.07;16.10;;;;;;;2.55;100.00;98710.59;5060696;28;20220;-76
2023/12/01 01:30:53;;;;;;;17.67;15.87;;;;;;;2.55;100.00;98714.81;5061639;28;20238;-77
2023/12/01 01:33:18;;;;;;;17.80;15.90;;;;;;;2.56;100.00;98707.19;5060323;28;21874;-77
2023/12/01 01:35:45;;;;;;;18.90;17.10;;;;;;;2.57;100.00;98710.56;5058623;28;20244;-77
2023/12/01 01:38:10;;;;;;;18.33;16.43;;;;;;;2.54;100.00;98700.34;5062317;28;20214;-75
2023/12/01 01:40:36;;;;;;;18.47;16.67;;;;;;;2.52;100.00;98713.13;5061467;28;20233;-76
2023/12/01 01:43:01;;;;;;;17.70;15.73;;;;;;;2.49;100.00;98722.50;5061115;28;21007;-76
2023/12/01 01:45:27;;;;;;;17.70;15.93;;;;;;;2.54;100.00;98731.00;5061645;28;20262;-77
2023/12/01 01:47:52;;;;;;;17.73;15.93;;;;;;;2.58;100.00;98727.59;5057935;28;20211;-76
2023/12/01 01:50:18;;;;;;;17.80;16.03;;;;;;;2.64;100.00;98737.81;5060381;28;20210;-77
2023/12/01 01:52:43;;;;;;;18.30;16.23;;;;;;;2.56;100.00;98732.72;5059960;28;20233;-76
2023/12/01 01:55:09;;;;;;;16.47;14.90;;;;;;;2.64;100.00;98742.06;5061415;28;20185;-77
2023/12/01 01:57:39;;;;;;;16.73;15.23;;;;;;;2.55;100.00;98737.81;5062919;28;20194;-75
2023/12/01 02:00:06;;;;;;;18.30;16.37;;;;;;;2.62;100.00;98736.97;5064178;28;20209;-76
2023/12/01 02:02:33;;;;;;;19.40;17.43;;;;;;;2.56;100.00;98744.63;5064778;28;20275;-76
2023/12/01 02:04:59;;;;;;;18.83;16.83;;;;;;;2.55;100.00;98748.03;5067496;28;20219;-77
2023/12/01 02:07:25;;;;;;;20.87;18.67;;;;;;;2.34;100.00;98747.22;5063911;28;20217;-76
2023/12/01 02:09:51;;;;;;;19.77;17.57;;;;;;;2.35;100.00;98758.25;5066647;28;20239;-77
2023/12/01 02:12:16;;;;;;;19.13;17.30;;;;;;;2.29;100.00;98752.28;5066938;28;20206;-76
2023/12/01 02:14:41;;;;;;;20.00;17.90;;;;;;;2.21;100.00;98760.81;5066128;28;20220;-76
2023/12/01 02:17:07;;;;;;;19.90;17.80;;;;;;;2.05;100.00;98760.78;5068855;28;20215;-76
2023/12/01 02:19:32;;;;;;;20.60;18.33;;;;;;;2.11;100.00;98754.88;5068306;28;20221;-77
2023/12/01 02:21:57;;;;;;;22.67;20.43;;;;;;;2.14;100.00;98747.19;5064050;28;20186;-76
2023/12/01 02:24:22;;;;;;;24.93;22.47;;;;;;;2.13;100.00;98743.78;5061409;28;20194;-76
2023/12/01 02:26:48;;;;;;;23.23;20.97;;;;;;;2.18;100.00;98748.06;5062791;28;20190;-76
2023/12/01 02:29:13;;;;;;;22.17;19.97;;;;;;;2.14;100.00;98734.44;5065590;28;20201;-76
2023/12/01 02:31:38;;;;;;;24.30;21.70;;;;;;;2.00;100.00;98754.84;5062157;28;20271;-76
2023/12/01 02:34:04;;;;;;;22.80;20.50;;;;;;;2.03;100.00;98757.41;5066022;28;20194;-76
2023/12/01 02:36:29;;;;;;;23.53;21.03;;;;;;;1.85;100.00;98749.72;5064122;28;20273;-76
2023/12/01 02:38:55;;;;;;;22.67;20.37;;;;;;;1.91;100.00;98753.13;5067343;28;20193;-76
2023/12/01 02:41:20;;;;;;;23.37;20.97;;;;;;;1.87;100.00;98756.53;5062943;28;20200;-76
2023/12/01 02:43:46;;;;;;;24.07;21.43;;;;;;;1.73;100.00;98771.81;5062345;28;20649;-76
2023/12/01 02:46:12;;;;;;;24.53;22.03;;;;;;;1.71;100.00;98776.06;5065816;28;20197;-76
2023/12/01 02:48:39;;;;;;;26.83;24.03;;;;;;;1.68;100.00;98773.50;5064227;28;20186;-76
2023/12/01 02:51:05;;;;;;;26.80;24.10;;;;;;;1.63;100.00;98770.94;5063895;28;20226;-77
2023/12/01 02:53:30;;;;;;;30.63;27.43;;;;;;;1.63;100.00;98772.63;5061206;28;20200;-76
2023/12/01 02:55:56;;;;;;;29.87;26.67;;;;;;;1.65;100.00;98774.34;5065492;28;20536;-76
2023/12/01 02:58:21;;;;;;;32.63;28.37;;;;;;;1.67;100.00;98777.72;5065363;28;20204;-76
2023/12/01 03:00:47;;;;;;;32.07;28.57;;;;;;;1.55;100.00;98774.31;5064655;28;20741;-77
2023/12/01 03:03:12;;;;;;;37.73;31.57;;;;;;;1.59;100.00;98781.97;5061849;28;20254;-76
2023/12/01 03:05:37;;;;;;;40.17;34.50;;;;;;;1.51;100.00;98771.75;5065101;28;20686;-76
2023/12/01 03:08:03;;;;;;;43.67;36.20;;;;;;;1.55;100.00;98766.66;5066162;28;20208;-76
2023/12/01 03:10:28;;;;;;;44.87;38.03;;;;;;;1.47;100.00;98764.94;5062268;28;20685;-74
2023/12/01 03:12:54;;;;;;;48.60;40.47;;;;;;;1.45;100.00;98763.22;5061704;28;20267;-75
2023/12/01 03:15:19;;;;;;;49.97;41.23;;;;;;;1.42;100.00;98773.41;5062113;28;20245;-76
2023/12/01 03:17:46;;;;;;;53.73;43.50;;;;;;;1.47;100.00;98772.56;5065722;28;20946;-77
2023/12/01 03:20:11;;;;;;;54.37;44.80;;;;;;;1.50;100.00;98764.94;5064136;28;20557;-76
2023/12/01 03:22:38;;;;;;;57.03;46.80;;;;;;;1.47;100.00;98759.00;5061109;28;20269;-76
2023/12/01 03:25:09;;;;;;;61.10;47.50;;;;;;;1.42;100.00;98758.97;5061693;28;20217;-76
2023/12/01 03:27:39;;;;;;;59.27;47.83;;;;;;;1.39;100.00;98750.44;5064458;28;20209;-76
2023/12/01 03:30:13;;;;;;;59.87;48.73;;;;;;;1.36;100.00;98749.59;5061589;28;20216;-75
2023/12/01 03:32:40;;;;;;;56.30;46.60;;;;;;;1.31;100.00;98752.97;5054991;28;20240;-75
2023/12/01 03:35:05;;;;;;;58.73;48.17;;;;;;;1.33;100.00;98747.06;5067000;28;20366;-76
2023/12/01 03:37:31;;;;;;;62.27;51.00;;;;;;;1.29;100.00;98759.75;5063692;28;20273;-75
2023/12/01 03:39:56;;;;;;;69.40;53.93;;;;;;;1.34;100.00;98751.31;5066218;28;20202;-75
2023/12/01 03:42:21;;;;;;;66.90;53.33;;;;;;;1.31;100.00;98747.88;5064126;28;20190;-76
2023/12/01 03:44:46;;;;;;;73.30;56.00;;;;;;;1.35;100.00;98755.56;5057585;28;20197;-76
2023/12/01 03:47:12;;;;;;;65.67;54.60;;;;;;;1.26;100.00;98754.66;5063110;28;20192;-76
2023/12/01 03:49:38;;;;;;;73.37;59.10;;;;;;;1.25;100.00;98764.00;5057504;28;20290;-76
2023/12/01 03:52:03;;;;;;;73.47;56.27;;;;;;;1.17;100.00;98750.38;5065581;28;20206;-76
2023/12/01 03:54:28;;;;;;;77.47;58.40;;;;;;;1.12;100.00;98754.59;5062746;28;20244;-76
2023/12/01 03:56:54;;;;;;;70.77;55.90;;;;;;;1.15;100.00;98770.75;5063155;28;20631;-76
2023/12/01 03:59:19;;;;;;;75.87;56.30;;;;;;;1.10;100.00;98780.09;5060679;28;20205;-76
2023/12/01 04:01:44;;;;;;;66.80;52.97;;;;;;;1.08;100.00;98783.44;5059051;28;20221;-76
2023/12/01 04:04:10;;;;;;;74.67;55.40;;;;;;;1.01;100.00;98768.16;5062555;28;20178;-76
2023/12/01 04:06:36;;;;;;;75.90;56.83;;;;;;;0.96;100.00;98758.78;5058987;28;20292;-76
2023/12/01 04:09:05;;;;;;;75.90;58.10;;;;;;;0.98;100.00;98765.56;5061300;28;20196;-76
2023/12/01 04:11:32;;;;;;;72.13;55.63;;;;;;;1.02;100.00;98767.31;5060080;28;20841;-75
2023/12/01 04:13:57;;;;;;;75.67;57.33;;;;;;;1.06;100.00;98771.53;5060957;28;20247;-77
2023/12/01 04:16:24;;;;;;;81.53;60.30;;;;;;;1.14;100.00;98765.66;5062137;28;20937;-76
2023/12/01 04:18:50;;;;;;;79.57;59.67;;;;;;;1.13;100.00;98758.84;5061961;28;20197;-76
2023/12/01 04:21:16;;;;;;;75.70;58.00;;;;;;;1.11;100.00;98747.78;5061416;28;20255;-75
2023/12/01 04:23:41;;;;;;;76.13;57.27;;;;;;;1.13;100.00;98761.41;5059355;28;20614;-75
2023/12/01 04:26:08;;;;;;;70.87;56.00;;;;;;;1.14;100.00;98760.56;5059840;28;20216;-77
2023/12/01 04:28:33;;;;;;;76.07;59.70;;;;;;;1.13;100.00;98753.75;5057021;28;20268;-77
2023/12/01 04:30:59;;;;;;;81.20;62.07;;;;;;;1.06;100.00;98756.25;5059060;28;20304;-76
2023/12/01 04:33:24;;;;;;;70.30;56.60;;;;;;;1.04;100.00;98754.56;5060738;28;20201;-76
2023/12/01 04:35:49;;;;;;;80.47;59.87;;;;;;;0.98;100.00;98744.38;5062407;28;20205;-76
2023/12/01 04:38:15;;;;;;;79.17;61.43;;;;;;;0.96;100.00;98756.22;5060116;28;20197;-77
2023/12/01 04:40:40;;;;;;;79.47;61.97;;;;;;;1.05;100.00;98763.91;5059952;28;20306;-76
2023/12/01 04:43:06;;;;;;;72.67;57.17;;;;;;;0.94;100.00;98746.03;5052411;28;20197;-76
2023/12/01 04:45:32;;;;;;;71.80;58.67;;;;;;;1.06;100.00;98733.34;5059549;28;20207;-77
2023/12/01 04:47:58;;;;;;;74.77;58.30;;;;;;;1.04;100.00;98729.94;5060627;28;20190;-76
2023/12/01 04:50:24;;;;;;;69.07;57.47;;;;;;;0.97;100.00;98735.84;5061828;28;20839;-75
2023/12/01 04:53:00;;;;;;;72.03;57.10;;;;;;;1.02;100.00;98729.09;5058816;28;20686;-76
2023/12/01 04:55:28;;;;;;;74.23;58.90;;;;;;;1.12;100.00;98737.63;5054090;28;20197;-76
2023/12/01 04:57:57;;;;;;;72.10;57.67;;;;;;;1.11;100.00;98730.81;5057521;28;20190;-76
2023/12/01 05:00:28;;;;;;;67.53;55.27;;;;;;;1.11;100.00;98743.56;5059685;28;20212;-76
2023/12/01 05:02:56;;;;;;;68.33;54.07;;;;;;;1.06;100.00;98765.63;5056485;28;20187;-76
2023/12/01 05:05:23;;;;;;;69.33;54.97;;;;;;;1.03;100.00;98756.28;5059477;28;20194;-76
2023/12/01 05:07:51;;;;;;;69.57;56.07;;;;;;;1.04;100.00;98750.34;5060215;28;20640;-76
2023/12/01 05:10:21;;;;;;;70.50;54.93;;;;;;;1.04;100.00;98759.66;5060314;28;20237;-76
2023/12/01 05:12:51;;;;;;;67.27;52.17;;;;;;;1.03;100.00;98757.94;5058071;28;20209;-76
2023/12/01 05:15:18;;;;;;;64.83;51.27;;;;;;;1.10;100.00;98756.28;5060300;28;20189;-75
2023/12/01 05:17:50;;;;;;;71.20;55.67;;;;;;;1.12;100.00;98769.88;5059833;28;20214;-77
2023/12/01 05:20:16;;;;;;;70.20;57.37;;;;;;;1.20;100.00;98761.44;5057116;28;20221;-76
2023/12/01 05:22:42;;;;;;;74.40;56.93;;;;;;;1.23;100.00;98769.94;5054704;28;20641;-77
2023/12/01 05:25:13;;;;;;;70.77;54.87;;;;;;;1.24;100.00;98779.28;5048086;28;20185;-76
2023/12/01 05:27:43;;;;;;;67.73;54.17;;;;;;;1.26;100.00;98790.34;5051432;28;20662;-76
2023/12/01 05:30:13;;;;;;;63.37;52.00;;;;;;;1.24;100.00;98789.50;5060087;28;21004;-76
2023/12/01 05:32:40;;;;;;;60.53;49.43;;;;;;;1.24;100.00;98789.50;5053707;28;20218;-74
2023/12/01 05:35:10;;;;;;;59.70;48.20;;;;;;;1.25;100.00;98794.56;5060594;28;20239;-76
2023/12/01 05:37:35;;;;;;;62.60;48.80;;;;;;;1.18;100.00;98788.59;5060420;28;20185;-76
2023/12/01 05:40:01;;;;;;;60.10;47.73;;;;;;;1.17;100.00;98792.00;5058811;28;20229;-76
2023/12/01 05:42:26;;;;;;;60.57;48.90;;;;;;;1.16;100.00;98785.19;5058697;28;20212;-76
2023/12/01 05:44:51;;;;;;;60.83;48.97;;;;;;;1.13;100.00;98789.44;5060842;28;20730;-76
2023/12/01 05:47:16;;;;;;;58.57;47.00;;;;;;;1.16;100.00;98795.38;5057069;28;20190;-76
2023/12/01 05:49:42;;;;;;;59.97;48.47;;;;;;;1.10;100.00;98799.59;5059174;28;20249;-75
2023/12/01 05:52:07;;;;;;;63.17;49.77;;;;;;;1.01;100.00;98792.75;5060303;28;20213;-76
2023/12/01 05:54:32;;;;;;;59.47;47.90;;;;;;;1.04;100.00;98795.31;5053977;28;20291;-76
2023/12/01 05:56:58;;;;;;;62.23;48.63;;;;;;;1.03;100.00;98798.72;5057714;28;20186;-77
2023/12/01 05:59:23;;;;;;;62.13;49.07;;;;;;;1.05;100.00;98817.41;5060012;28;20267;-76
2023/12/01 06:01:48;;;;;;;55.10;45.70;;;;;;;1.07;100.00;98825.91;5053746;28;20193;-76
2023/12/01 06:04:14;;;;;;;54.73;43.30;;;;;;;1.12;100.00;98825.94;5058075;28;20205;-77
2023/12/01 06:06:39;;;;;;;50.87;41.17;;;;;;;1.06;100.00;98831.84;5060254;28;20711;-76
2023/12/01 06:09:07;;;;;;;58.37;44.57;;;;;;;0.89;100.00;98841.94;5060830;28;20194;-76
2023/12/01 06:11:32;;;;;;;57.53;44.33;;;;;;;0.86;100.00;98827.47;5058499;28;20260;-77
2023/12/01 06:13:58;;;;;;;56.43;42.83;;;;;;;0.88;100.00;98824.97;5053599;28;20553;-76
2023/12/01 06:16:23;;;;;;;60.57;47.20;;;;;;;0.88;100.00;98820.69;5057328;28;20198;-77
2023/12/01 06:18:49;;;;;;;62.23;47.63;;;;;;;0.84;100.00;98829.16;5057602;28;20186;-77
2023/12/01 06:21:14;;;;;;;68.33;49.93;;;;;;;0.86;100.00;98826.66;5055383;28;20217;-76
2023/12/01 06:23:39;;;;;;;59.90;46.57;;;;;;;0.88;100.00;98828.34;5057355;28;20200;-77
2023/12/01 06:26:05;;;;;;;62.63;47.63;;;;;;;0.85;100.00;98842.75;5056725;28;20852;-77
2023/12/01 06:28:30;;;;;;;64.90;49.70;;;;;;;0.83;100.00;98840.19;5059537;28;20683;-77
2023/12/01 06:30:55;;;;;;;69.20;51.60;;;;;;;0.86;100.00;98832.56;5057683;28;20241;-77
2023/12/01 06:33:21;;;;;;;70.23;50.60;;;;;;;0.86;100.00;98840.22;5058878;28;20293;-77
2023/12/01 06:35:46;;;;;;;68.57;51.50;;;;;;;0.86;100.00;98842.75;5061029;28;20199;-77
2023/12/01 06:38:11;;;;;;;68.27;51.53;;;;;;;0.81;100.00;98841.03;5053301;28;20216;-77
2023/12/01 06:40:37;;;;;;;73.20;54.03;;;;;;;0.88;100.00;98848.72;5062146;28;20210;-76
2023/12/01 06:43:09;;;;;;;69.93;52.40;;;;;;;0.87;100.00;98854.66;5058003;28;20182;-76
2023/12/01 06:45:36;;;;;;;65.57;50.57;;;;;;;0.88;100.00;98863.16;5060587;28;20289;-77
2023/12/01 06:48:01;;;;;;;69.87;51.67;;;;;;;0.89;100.00;98864.88;5062134;28;20248;-76
2023/12/01 06:50:26;;;;;;;57.67;46.30;;;;;;;0.74;100.00;98876.66;5064467;28;20205;-76
2023/12/01 06:52:53;;;;;;;63.53;48.43;;;;;;;0.83;100.00;98868.19;5064923;28;20194;-76
2023/12/01 06:55:18;;;;;;;61.17;47.43;;;;;;;0.82;100.00;98878.38;5068765;28;20725;-77
2023/12/01 06:57:45;;;;;;;64.50;47.47;;;;;;;0.76;100.00;98864.75;5062524;28;20182;-76
2023/12/01 07:02:57;;;;;;;60.63;47.33;;;;;;;0.77;100.00;98868.16;5059686;28;20825;-76
2023/12/01 07:05:25;;;;;;;67.03;48.67;;;;;;;0.81;100.00;98861.41;5059033;28;20178;-76
2023/12/01 07:07:51;;;;;;;56.10;44.73;;;;;;;0.76;100.00;98867.31;5059360;28;20202;-76
2023/12/01 07:10:16;;;;;;;61.30;46.60;;;;;;;0.71;100.00;98868.97;5063257;28;20220;-75
2023/12/01 07:12:42;;;;;;;62.37;45.80;;;;;;;0.72;100.00;98868.16;5060245;28;20222;-75
2023/12/01 07:15:13;;;;;;;58.43;45.90;;;;;;;0.72;100.00;98872.38;5065337;28;20886;-75
2023/12/01 07:17:39;;;;;;;56.40;43.43;;;;;;;0.88;100.00;98879.28;5062969;28;20273;-78
2023/12/01 07:20:13;;;;;;;55.73;43.70;;;;;;;0.74;100.00;98873.22;5063875;28;20295;-76
2023/12/01 07:22:44;;;;;;;62.87;47.20;;;;;;;0.74;100.00;98870.69;5060277;28;20178;-76
2023/12/01 07:25:10;;;;;;;65.53;47.27;;;;;;;0.73;100.00;98862.22;5065057;28;20254;-76
2023/12/01 07:27:37;;;;;;;62.83;48.00;;;;;;;0.61;100.00;98879.91;5065047;28;20178;-76
2023/12/01 07:30:02;;;;;;;61.03;47.43;;;;;;;0.69;100.00;98900.34;5056598;28;20594;-75
2023/12/01 07:32:28;;;;;;;53.80;42.77;;;;;;;0.77;100.00;98908.91;5064707;28;20200;-75
2023/12/01 07:34:53;;;;;;;57.13;43.97;;;;;;;0.63;100.00;98913.03;5063599;28;20956;-76
2023/12/01 07:37:19;;;;;;;55.30;43.00;;;;;;;0.63;100.00;98902.84;5060183;28;20182;-76
2023/12/01 07:39:44;;;;;;;60.70;45.20;;;;;;;0.56;100.00;98892.59;5062213;28;20296;-76
2023/12/01 07:42:10;;;;;;;59.53;44.87;;;;;;;0.67;100.00;98887.63;5061164;28;20656;-76
2023/12/01 07:44:35;;;;;;;61.93;46.00;;;;;;;0.70;100.00;98881.69;5062499;28;20216;-76
2023/12/01 07:47:04;;;;;;;59.47;46.17;;;;;;;0.73;100.00;98885.13;5059570;28;20270;-77
2023/12/01 07:49:30;;;;;;;66.90;48.20;;;;;;;0.70;100.00;98887.66;5053161;28;20211;-76
2023/12/01 07:51:55;;;;;;;68.40;47.83;;;;;;;0.80;100.00;98872.44;5060250;28;20206;-75
2023/12/01 07:54:22;;;;;;;65.80;48.90;;;;;;;0.80;100.00;98875.84;5063223;28;20208;-75
2023/12/01 07:56:47;;;;;;;66.23;48.00;;;;;;;0.84;100.00;98880.09;5058984;28;20188;-76
2023/12/01 07:59:12;;;;;;;58.83;44.73;;;;;;;0.85;100.00;98889.44;5063483;28;20704;-76
2023/12/01 08:01:38;;;;;;;63.07;46.73;;;;;;;0.83;100.00;98896.22;5060426;28;20184;-76
2023/12/01 08:04:03;;;;;;;65.53;46.37;;;;;;;0.86;100.00;98893.69;5058641;28;20268;-76
2023/12/01 08:06:28;;;;;;;66.40;47.60;;;;;;;0.86;100.00;98898.78;5058136;28;20194;-76
2023/12/01 08:08:54;;;;;;;62.93;46.93;;;;;;;0.94;100.00;98915.84;5059916;28;20176;-76
2023/12/01 08:11:19;;;;;;;68.17;48.80;;;;;;;0.98;100.00;98915.88;5060397;28;20215;-77
2023/12/01 08:13:44;;;;;;;72.57;50.87;;;;;;;1.05;100.00;98917.66;5059049;28;20208;-77
2023/12/01 08:16:10;;;;;;;69.03;49.97;;;;;;;1.01;100.00;98922.69;5062097;28;20225;-76
2023/12/01 08:18:35;;;;;;;71.03;49.63;;;;;;;1.05;100.00;98916.78;5061607;28;20224;-76
2023/12/01 08:21:00;;;;;;;69.87;48.20;;;;;;;1.09;100.00;98922.75;5062272;28;20217;-76
2023/12/01 08:23:25;;;;;;;69.53;47.87;;;;;;;1.11;100.00;98899.00;5063129;28;20173;-75
2023/12/01 08:25:51;;;;;;;73.00;50.40;;;;;;;1.14;100.00;98896.44;5063602;28;20179;-76
2023/12/01 08:28:17;;;;;;;71.53;51.00;;;;;;;1.14;100.00;98888.81;5061059;28;20656;-77
2023/12/01 08:30:43;;;;;;;72.43;51.70;;;;;;;1.14;100.00;98891.34;5062695;28;20708;-76
2023/12/01 08:33:08;;;;;;;75.33;52.60;;;;;;;1.20;100.00;98904.16;5061844;28;20217;-76
2023/12/01 08:35:33;;;;;;;73.87;52.17;;;;;;;1.20;100.00;98926.25;5061173;28;20178;-76
2023/12/01 08:37:59;;;;;;;76.70;52.80;;;;;;;1.19;100.00;98909.25;5061514;28;20186;-76
2023/12/01 08:40:24;;;;;;;74.03;52.43;;;;;;;1.19;100.00;98899.88;5055863;28;20618;-76
2023/12/01 08:42:52;;;;;;;73.87;50.33;;;;;;;1.12;100.00;98885.41;5063196;28;20289;-76
2023/12/01 08:45:18;;;;;;;77.43;50.40;;;;;;;1.16;100.00;98874.38;5058838;28;20179;-76
2023/12/01 08:47:43;;;;;;;79.73;52.63;;;;;;;1.23;100.00;98879.53;5063804;28;20239;-76
2023/12/01 08:50:10;;;;;;;77.07;53.83;;;;;;;1.27;100.00;98883.81;5064240;28;20220;-76
2023/12/01 08:52:37;;;;;;;75.97;53.23;;;;;;;1.32;100.00;98899.97;5062896;28;20228;-76
2023/12/01 08:55:02;;;;;;;81.20;55.97;;;;;;;1.30;100.00;98905.06;5061719;28;20299;-76
2023/12/01 08:57:27;;;;;;;86.07;58.83;;;;;;;1.35;100.00;98903.41;5059769;28;20200;-77
2023/12/01 08:59:53;;;;;;;81.67;55.57;;;;;;;1.42;100.00;98908.53;5062262;28;20288;-77
2023/12/01 09:02:19;;;;;;;80.47;56.17;;;;;;;1.42;100.00;98913.63;5060274;28;20309;-76
2023/12/01 09:04:44;;;;;;;80.53;56.00;;;;;;;1.49;100.00;98913.66;5062569;28;20189;-76
2023/12/01 09:07:09;;;;;;;91.47;60.40;;;;;;;1.46;100.00;98915.34;5062260;28;20205;-76
2023/12/01 09:09:35;;;;;;;87.07;58.50;;;;;;;1.46;100.00;98918.75;5062838;28;20209;-76
2023/12/01 09:12:01;;;;;;;79.40;53.93;;;;;;;1.37;100.00;98909.34;5060325;28;20570;-78
2023/12/01 09:14:26;;;;;;;78.90;55.30;;;;;;;1.41;100.00;98914.47;5062666;28;20209;-76
2023/12/01 09:16:52;;;;;;;82.63;55.83;;;;;;;1.46;100.00;98912.81;5063266;28;20292;-74
2023/12/01 09:19:17;;;;;;;76.03;54.50;;;;;;;1.42;100.00;98904.28;5063814;28;20204;-75
2023/12/01 09:21:42;;;;;;;79.43;54.73;;;;;;;1.40;100.00;98908.53;5062180;28;20188;-76
2023/12/01 09:24:07;;;;;;;79.00;53.17;;;;;;;1.39;100.00;98922.09;5061939;28;20243;-76
2023/12/01 09:26:33;;;;;;;89.00;55.70;;;;;;;1.44;100.00;98912.78;5060957;28;20272;-75
2023/12/01 09:28:58;;;;;;;82.13;54.43;;;;;;;1.41;100.00;98911.91;5059702;28;20220;-76
2023/12/01 09:31:23;;;;;;;78.03;53.10;;;;;;;1.41;100.00;98914.47;5064734;28;20229;-77
2023/12/01 09:33:49;;;;;;;85.97;57.07;;;;;;;1.51;100.00;98918.78;5060372;28;20276;-75
2023/12/01 09:36:17;;;;;;;84.60;55.97;;;;;;;1.55;100.00;98917.94;5065422;28;20186;-75
2023/12/01 09:38:44;;;;;;;83.37;54.87;;;;;;;1.57;100.00;98923.91;5067993;28;20674;-76
2023/12/01 09:41:10;;;;;;;78.47;54.17;;;;;;;1.61;100.00;98917.13;5063269;28;20220;-78
2023/12/01 09:43:35;;;;;;;77.73;52.80;;;;;;;1.68;100.00;98929.06;5062675;28;20640;-77
2023/12/01 09:46:01;;;;;;;76.60;52.77;;;;;;;1.60;100.00;98931.56;5060324;28;20197;-77
2023/12/01 09:48:33;;;;;;;74.30;50.40;;;;;;;1.52;100.00;98925.56;5067087;28;20187;-77
2023/12/01 09:50:58;;;;;;;81.20;50.20;;;;;;;1.52;100.00;98933.22;5065733;28;20271;-78
2023/12/01 09:53:23;;;;;;;68.27;47.13;;;;;;;1.52;100.00;98934.09;5065333;28;20186;-78
2023/12/01 09:55:49;;;;;;;70.20;48.33;;;;;;;1.59;100.00;98927.31;5063679;28;20193;-78
2023/12/01 09:58:15;;;;;;;75.43;49.93;;;;;;;1.62;100.00;98931.56;5065575;28;20178;-78
2023/12/01 10:00:41;;;;;;;70.67;48.17;;;;;;;1.65;100.00;98919.72;5063274;28;20678;-78
2023/12/01 10:03:06;;;;;;;76.80;50.17;;;;;;;1.61;100.00;98927.31;5048898;28;20236;-78
2023/12/01 10:05:34;;;;;;;77.23;49.27;;;;;;;1.55;100.00;98917.94;5063605;28;20177;-76
2023/12/01 10:08:00;;;;;;;71.07;47.03;;;;;;;1.59;100.00;98913.72;5068897;28;20883;-76
2023/12/01 10:10:26;;;;;;;69.30;46.33;;;;;;;1.58;100.00;98915.41;5063270;28;20241;-78
2023/12/01 10:12:56;;;;;;;63.00;43.37;;;;;;;1.66;100.00;98911.19;5061375;28;20198;-79
2023/12/01 10:15:24;;;;;;;74.73;46.47;;;;;;;1.68;100.00;98903.56;5058716;28;20205;-75
2023/12/01 10:17:50;;;;;;;68.67;46.27;;;;;;;1.72;100.00;98909.53;5060752;28;20300;-76
2023/12/01 10:20:20;;;;;;;68.23;46.10;;;;;;;1.76;100.00;98904.44;5058948;28;20277;-75
2023/12/01 10:22:46;;;;;;;70.17;46.27;;;;;;;1.73;100.00;98904.44;5060197;28;20280;-75
2023/12/01 10:25:12;;;;;;;68.60;45.43;;;;;;;1.81;100.00;98901.94;5065849;28;21233;-76
2023/12/01 10:27:39;;;;;;;61.83;43.33;;;;;;;1.79;100.00;98898.53;5065871;28;20193;-75
2023/12/01 10:30:12;;;;;;;69.00;44.97;;;;;;;1.85;100.00;98895.97;5060909;28;20201;-78
2023/12/01 10:32:37;;;;;;;63.37;42.70;;;;;;;1.79;100.00;98888.31;5063900;28;20216;-76
2023/12/01 10:35:07;;;;;;;58.20;41.57;;;;;;;1.74;100.00;98893.38;5067941;28;20193;-76
2023/12/01 10:37:34;;;;;;;63.10;42.43;;;;;;;1.72;100.00;98899.31;5059204;28;20792;-76
2023/12/01 10:40:01;;;;;;;57.93;41.00;;;;;;;1.72;100.00;98906.97;5062941;28;20234;-76
2023/12/01 10:42:29;;;;;;;60.97;41.97;;;;;;;1.69;100.00;98900.16;5064242;28;20186;-76
2023/12/01 10:44:58;;;;;;;66.27;43.23;;;;;;;1.74;100.00;98890.81;5065036;28;20291;-76
2023/12/01 10:47:24;;;;;;;61.70;42.37;;;;;;;1.86;100.00;98886.63;5064850;28;20192;-76
2023/12/01 10:49:54;;;;;;;60.50;43.50;;;;;;;1.89;100.00;98889.22;5062718;28;20218;-76
2023/12/01 10:52:20;;;;;;;63.93;45.03;;;;;;;1.85;100.00;98895.97;5062790;28;20205;-76
2023/12/01 10:54:46;;;;;;;60.63;42.63;;;;;;;1.87;100.00;98896.00;5062551;28;20556;-76
2023/12/01 10:57:19;;;;;;;64.77;44.03;;;;;;;1.83;100.00;98898.53;5055933;28;20657;-74
2023/12/01 10:59:50;;;;;;;63.17;44.00;;;;;;;1.90;100.00;98891.75;5058336;28;20606;-76
2023/12/01 11:02:16;;;;;;;58.90;42.80;;;;;;;1.89;100.00;98879.00;5061513;28;22694;-75
2023/12/01 11:04:44;;;;;;;54.40;39.97;;;;;;;1.86;100.00;98863.69;5062049;28;20205;-76
2023/12/01 11:07:28;;;;;;;54.40;40.60;;;;;;;1.88;100.00;98877.28;5064254;28;20201;-76
2023/12/01 11:10:11;;;;;;;57.70;41.43;;;;;;;1.87;100.00;98881.53;5062963;28;20259;-75
2023/12/01 11:12:58;;;;;;;58.87;42.23;;;;;;;1.89;100.00;98873.91;5063890;28;20689;-76
2023/12/01 11:15:27;;;;;;;58.10;41.97;;;;;;;1.79;100.00;98881.50;5063783;28;20190;-74